createdAt,value
2018-09-21T00:01:03.576Z,61.20
2018-09-21T00:03:31.739Z,61.50
2018-09-21T00:05:59.957Z,61.10
2018-09-21T00:08:28.091Z,61.50
2018-09-21T00:10:56.226Z,61.30
2018-09-21T00:13:24.362Z,61.40
2018-09-21T00:15:52.522Z,61.30
2018-09-21T00:18:20.614Z,61.10
2018-09-21T00:20:48.731Z,61.10
2018-09-21T00:23:16.870Z,61.10
2018-09-21T00:25:45.020Z,60.90
2018-09-21T00:28:13.167Z,60.90
2018-09-21T00:30:41.338Z,61.10
2018-09-21T00:33:09.439Z,61.20
2018-09-21T00:35:37.576Z,61.70
2018-09-21T00:38:05.724Z,62.20
2018-09-21T00:40:33.921Z,62.20
2018-09-21T00:43:02.170Z,62.10
2018-09-21T00:45:30.315Z,62.20
2018-09-21T00:47:58.572Z,62.80
2018-09-21T00:50:26.703Z,62.50
2018-09-21T00:52:54.811Z,62.80
2018-09-21T00:55:23.026Z,62.70
2018-09-21T00:57:51.155Z,62.70
2018-09-21T01:00:19.398Z,62.70
2018-09-21T01:02:47.579Z,62.70
2018-09-21T01:05:15.696Z,62.70
2018-09-21T01:07:43.890Z,62.60
2018-09-21T01:10:12.035Z,62.60
2018-09-21T01:12:40.195Z,62.70
2018-09-21T01:15:08.375Z,62.70
2018-09-21T01:17:36.487Z,63.20
2018-09-21T01:20:04.635Z,62.80
2018-09-21T01:22:32.789Z,62.80
2018-09-21T01:25:00.924Z,63.10
2018-09-21T01:27:29.039Z,63.30
2018-09-21T01:29:57.167Z,63.30
2018-09-21T01:32:25.258Z,63.30
2018-09-21T01:34:53.373Z,63.10
2018-09-21T01:37:21.487Z,62.90
2018-09-21T01:39:49.679Z,63.10
2018-09-21T01:42:17.808Z,63.30
2018-09-21T01:44:45.979Z,63.20
2018-09-21T01:47:14.080Z,63.30
2018-09-21T01:49:42.287Z,63.30
2018-09-21T01:52:10.431Z,62.70
2018-09-21T01:54:38.562Z,63.80
2018-09-21T01:57:06.743Z,62.80
2018-09-21T01:59:34.936Z,62.70
2018-09-21T02:02:03.131Z,62.60
2018-09-21T02:04:37.216Z,62.90
2018-09-21T02:07:06.603Z,63.40
2018-09-21T02:09:34.802Z,63.20
2018-09-21T02:12:02.925Z,63.50
2018-09-21T02:14:31.091Z,63.50
2018-09-21T02:16:59.216Z,63.80
2018-09-21T02:19:27.487Z,63.70
2018-09-21T02:21:55.616Z,63.80
2018-09-21T02:24:23.756Z,63.90
2018-09-21T02:26:52.028Z,63.90
2018-09-21T02:29:20.256Z,64.20
2018-09-21T02:31:48.948Z,64.00
2018-09-21T02:34:17.533Z,64.10
2018-09-21T02:36:45.676Z,64.20
2018-09-21T02:39:13.791Z,64.40
2018-09-21T02:41:41.969Z,64.40
2018-09-21T02:44:10.067Z,64.60
2018-09-21T02:46:38.199Z,64.40
2018-09-21T02:49:06.339Z,64.60
2018-09-21T02:51:34.467Z,64.70
2018-09-21T02:54:02.725Z,65.00
2018-09-21T02:56:30.950Z,64.90
2018-09-21T02:58:59.088Z,65.20
2018-09-21T03:01:27.203Z,65.40
2018-09-21T03:03:55.334Z,66.10
2018-09-21T03:06:23.524Z,65.80
2018-09-21T03:08:51.629Z,66.10
2018-09-21T03:11:19.755Z,66.20
2018-09-21T03:13:47.857Z,66.20
2018-09-21T03:16:16.050Z,66.30
2018-09-21T03:18:44.221Z,66.40
2018-09-21T03:21:12.309Z,66.80
2018-09-21T03:23:40.448Z,66.70
2018-09-21T03:26:08.553Z,66.70
2018-09-21T03:28:36.671Z,66.70
2018-09-21T03:31:04.891Z,66.80
2018-09-21T03:33:33.059Z,66.90
2018-09-21T03:36:01.147Z,67.00
2018-09-21T03:38:29.254Z,67.00
2018-09-21T03:40:57.348Z,67.30
2018-09-21T03:43:25.544Z,67.20
2018-09-21T03:45:53.933Z,67.10
2018-09-21T03:48:22.052Z,67.00
2018-09-21T03:50:50.170Z,66.90
2018-09-21T03:53:18.255Z,67.20
2018-09-21T03:55:46.443Z,67.40
2018-09-21T03:58:14.547Z,67.20
2018-09-21T04:00:42.736Z,67.30
2018-09-21T04:03:10.897Z,67.40
2018-09-21T04:05:39.100Z,67.50
2018-09-21T04:08:07.245Z,67.50
2018-09-21T04:10:35.350Z,67.90
2018-09-21T04:13:03.524Z,67.90
2018-09-21T04:15:31.717Z,67.70
2018-09-21T04:17:59.835Z,67.80
2018-09-21T04:20:27.985Z,67.90
2018-09-21T04:22:59.932Z,68.40
2018-09-21T04:25:28.485Z,68.10
2018-09-21T04:27:56.652Z,68.40
2018-09-21T04:30:25.539Z,68.50
2018-09-21T04:32:53.746Z,68.50
2018-09-21T04:35:21.892Z,68.70
2018-09-21T04:37:50.480Z,68.80
2018-09-21T04:40:18.596Z,68.70
2018-09-21T04:42:46.716Z,69.00
2018-09-21T04:45:14.876Z,68.80
2018-09-21T04:47:42.987Z,68.60
2018-09-21T04:50:11.308Z,68.50
2018-09-21T04:52:39.674Z,68.70
2018-09-21T04:55:07.948Z,68.90
2018-09-21T04:57:36.567Z,68.80
2018-09-21T05:00:05.667Z,68.70
2018-09-21T05:02:33.939Z,68.60
2018-09-21T05:05:02.270Z,68.50
2018-09-21T05:07:30.412Z,68.70
2018-09-21T05:09:58.614Z,68.70
2018-09-21T05:12:26.833Z,68.80
2018-09-21T05:14:55.040Z,69.00
2018-09-21T05:17:23.217Z,69.10
2018-09-21T05:19:51.410Z,69.00
2018-09-21T05:22:19.608Z,69.00
2018-09-21T05:24:47.868Z,69.00
2018-09-21T05:27:16.053Z,68.80
2018-09-21T05:29:44.565Z,68.60
2018-09-21T05:32:12.799Z,68.60
2018-09-21T05:34:41.090Z,68.60
2018-09-21T05:37:09.271Z,68.50
2018-09-21T05:39:37.499Z,68.10
2018-09-21T05:42:05.713Z,67.70
2018-09-21T05:44:34.570Z,67.30
2018-09-21T05:47:02.857Z,66.60
2018-09-21T05:49:31.131Z,66.50
2018-09-21T05:51:59.363Z,66.20
2018-09-21T05:54:27.576Z,65.70
2018-09-21T05:56:55.872Z,65.70
2018-09-21T05:59:24.095Z,65.40
2018-09-21T06:01:52.356Z,64.90
2018-09-21T06:04:20.545Z,64.50
2018-09-21T06:06:48.781Z,64.00
2018-09-21T06:09:16.973Z,64.40
2018-09-21T06:11:45.168Z,63.20
2018-09-21T06:14:13.377Z,63.30
2018-09-21T06:16:41.627Z,63.40
2018-09-21T06:19:09.840Z,63.40
2018-09-21T06:21:37.998Z,63.30
2018-09-21T06:24:06.243Z,62.80
2018-09-21T06:26:34.477Z,62.70
2018-09-21T06:29:02.716Z,62.40
2018-09-21T06:31:30.958Z,62.50
2018-09-21T06:33:59.188Z,62.20
2018-09-21T06:36:27.417Z,62.20
2018-09-21T06:38:55.663Z,61.90
2018-09-21T06:41:23.891Z,61.90
2018-09-21T06:43:52.049Z,61.70
2018-09-21T06:46:20.412Z,61.00
2018-09-21T06:48:48.608Z,60.70
2018-09-21T06:51:16.810Z,59.90
2018-09-21T06:53:45.067Z,59.70
2018-09-21T06:56:13.283Z,59.30
2018-09-21T06:58:41.453Z,58.90
2018-09-21T07:01:09.660Z,58.40
2018-09-21T07:03:37.876Z,58.10
2018-09-21T07:06:06.320Z,57.70
2018-09-21T07:08:34.466Z,57.30
2018-09-21T07:11:02.956Z,56.70
2018-09-21T07:13:31.181Z,56.40
2018-09-21T07:15:59.425Z,55.70
2018-09-21T07:18:27.606Z,55.80
2018-09-21T07:20:55.802Z,55.70
2018-09-21T07:23:24.071Z,54.80
2018-09-21T07:25:52.299Z,54.40
2018-09-21T07:28:20.561Z,53.30
2018-09-21T07:30:48.838Z,52.90
2018-09-21T07:33:17.039Z,52.40
2018-09-21T07:35:45.244Z,51.50
2018-09-21T07:38:13.419Z,50.70
2018-09-21T07:40:41.615Z,50.50
2018-09-21T07:43:09.836Z,50.30
2018-09-21T07:45:38.081Z,49.50
2018-09-21T07:48:06.297Z,49.30
2018-09-21T07:50:34.519Z,49.40
2018-09-21T07:53:02.760Z,48.30
2018-09-21T07:55:31.199Z,48.30
2018-09-21T07:57:59.418Z,48.30
2018-09-21T08:00:27.599Z,48.10
2018-09-21T08:02:55.768Z,48.20
2018-09-21T08:05:29.467Z,48.40
2018-09-21T08:07:57.654Z,47.40
2018-09-21T08:10:25.935Z,47.00
2018-09-21T08:12:54.167Z,46.50
2018-09-21T08:15:22.435Z,46.90
2018-09-21T08:17:50.642Z,47.10
2018-09-21T08:20:18.959Z,46.80
2018-09-21T08:22:47.440Z,46.50
2018-09-21T08:25:15.601Z,45.90
2018-09-21T08:27:43.780Z,46.10
2018-09-21T08:30:11.996Z,46.30
2018-09-21T08:32:40.275Z,46.00
2018-09-21T08:35:08.576Z,46.20
2018-09-21T08:37:37.107Z,45.80
2018-09-21T08:40:05.497Z,46.40
2018-09-21T08:42:33.675Z,45.10
2018-09-21T08:45:01.958Z,45.00
2018-09-21T08:47:30.142Z,44.10
2018-09-21T08:49:58.375Z,44.20
2018-09-21T08:52:26.608Z,44.70
2018-09-21T08:54:54.840Z,42.90
2018-09-21T08:57:23.017Z,43.20
2018-09-21T08:59:51.269Z,42.00
2018-09-21T09:02:19.470Z,41.20
2018-09-21T09:04:47.724Z,40.40
2018-09-21T09:07:15.937Z,40.00
2018-09-21T09:09:44.206Z,39.60
2018-09-21T09:12:12.386Z,38.90
2018-09-21T09:14:40.576Z,38.80
2018-09-21T09:17:08.800Z,39.10
2018-09-21T09:19:36.912Z,38.70
2018-09-21T09:22:05.511Z,38.90
2018-09-21T09:24:33.714Z,38.60
2018-09-21T09:27:02.016Z,39.00
2018-09-21T09:29:30.176Z,39.70
2018-09-21T09:32:00.762Z,39.30
2018-09-21T09:34:29.198Z,40.20
2018-09-21T09:36:57.975Z,40.20
2018-09-21T09:39:26.173Z,40.20
2018-09-21T09:41:54.428Z,40.10
2018-09-21T09:44:22.623Z,40.10
2018-09-21T09:46:50.883Z,40.20
2018-09-21T09:49:19.192Z,40.90
2018-09-21T09:51:47.432Z,40.30
2018-09-21T09:54:15.651Z,40.10
2018-09-21T09:56:43.820Z,39.60
2018-09-21T09:59:11.984Z,39.30
2018-09-21T10:01:40.225Z,39.10
2018-09-21T10:04:08.518Z,39.40
2018-09-21T10:06:36.741Z,39.80
2018-09-21T10:09:08.387Z,39.40
2018-09-21T10:11:36.584Z,39.40
2018-09-21T10:14:04.882Z,39.30
2018-09-21T10:16:33.161Z,39.50
2018-09-21T10:19:01.352Z,39.20
2018-09-21T10:21:29.596Z,39.40
2018-09-21T10:23:57.838Z,39.20
2018-09-21T10:26:26.089Z,39.40
2018-09-21T10:28:54.614Z,39.20
2018-09-21T10:31:22.584Z,39.30
2018-09-21T10:33:50.902Z,39.50
2018-09-21T10:36:18.983Z,39.50
2018-09-21T10:38:47.247Z,39.20
2018-09-21T10:41:15.424Z,39.30
2018-09-21T10:43:43.648Z,39.20
2018-09-21T10:46:11.827Z,39.20
2018-09-21T10:48:40.069Z,40.10
2018-09-21T10:51:08.355Z,39.60
2018-09-21T10:53:36.873Z,40.10
2018-09-21T10:56:05.103Z,40.70
2018-09-21T10:58:33.287Z,39.80
2018-09-21T11:01:01.565Z,39.90
2018-09-21T11:03:29.756Z,39.30
2018-09-21T11:05:57.958Z,39.70
2018-09-21T11:08:26.175Z,39.60
2018-09-21T11:10:54.360Z,39.10
2018-09-21T11:13:22.573Z,38.60
2018-09-21T11:15:50.796Z,39.30
2018-09-21T11:18:19.310Z,38.80
2018-09-21T11:20:47.517Z,39.50
2018-09-21T11:23:15.639Z,39.30
2018-09-21T11:25:43.905Z,39.10
2018-09-21T11:28:12.219Z,39.40
2018-09-21T11:30:40.444Z,39.30
2018-09-21T11:33:08.709Z,39.00
2018-09-21T11:35:36.924Z,39.00
2018-09-21T11:38:05.287Z,39.10
2018-09-21T11:40:33.509Z,38.90
2018-09-21T11:43:01.752Z,39.30
2018-09-21T11:45:29.924Z,39.30
2018-09-21T11:47:58.179Z,39.40
2018-09-21T11:50:26.423Z,38.80
2018-09-21T11:52:54.620Z,39.20
2018-09-21T11:55:22.940Z,39.90
2018-09-21T11:57:51.130Z,39.80
2018-09-21T12:00:19.293Z,40.40
2018-09-21T12:02:47.428Z,40.30
2018-09-21T12:05:15.644Z,40.00
2018-09-21T12:07:43.757Z,39.80
2018-09-21T12:10:11.963Z,40.40
2018-09-21T12:12:40.080Z,40.90
2018-09-21T12:15:08.331Z,40.30
2018-09-21T12:17:36.595Z,40.40
2018-09-21T12:20:05.247Z,40.40
2018-09-21T12:22:33.439Z,40.40
2018-09-21T12:25:01.675Z,40.40
2018-09-21T12:27:29.902Z,40.30
2018-09-21T12:29:58.706Z,40.30
2018-09-21T12:32:26.971Z,40.30
2018-09-21T12:34:55.180Z,40.30
2018-09-21T12:37:23.509Z,40.70
2018-09-21T12:39:51.819Z,40.40
2018-09-21T12:42:20.171Z,40.40
2018-09-21T12:44:48.353Z,40.40
2018-09-21T12:47:16.512Z,40.50
2018-09-21T12:49:44.683Z,40.50
2018-09-21T12:52:12.952Z,40.50
2018-09-21T12:54:41.131Z,40.50
2018-09-21T12:57:09.405Z,40.50
2018-09-21T12:59:37.611Z,40.40
2018-09-21T13:02:05.979Z,40.70
2018-09-21T13:04:36.443Z,41.10
2018-09-21T13:07:04.749Z,41.40
2018-09-21T13:09:32.908Z,41.50
2018-09-21T13:12:01.169Z,41.40
2018-09-21T13:14:29.461Z,41.60
2018-09-21T13:16:57.685Z,41.20
2018-09-21T13:19:26.194Z,41.60
2018-09-21T13:21:54.471Z,41.00
2018-09-21T13:24:22.670Z,40.60
2018-09-21T13:26:51.017Z,40.80
2018-09-21T13:29:19.194Z,40.40
2018-09-21T13:31:47.471Z,40.70
2018-09-21T13:34:15.689Z,40.70
2018-09-21T13:36:43.876Z,41.10
2018-09-21T13:39:12.523Z,40.40
2018-09-21T13:41:40.800Z,40.60
2018-09-21T13:44:09.062Z,40.40
2018-09-21T13:46:37.268Z,40.40
2018-09-21T13:49:05.851Z,40.10
2018-09-21T13:51:34.057Z,41.20
2018-09-21T13:54:02.276Z,41.80
2018-09-21T13:56:30.491Z,41.80
2018-09-21T13:58:58.639Z,41.20
2018-09-21T14:01:27.379Z,41.20
2018-09-21T14:03:56.063Z,41.10
2018-09-21T14:06:24.381Z,40.70
2018-09-21T14:08:52.601Z,40.60
2018-09-21T14:11:20.843Z,40.40
2018-09-21T14:13:49.125Z,40.80
2018-09-21T14:16:17.296Z,40.90
2018-09-21T14:18:45.875Z,41.50
2018-09-21T14:21:14.186Z,41.80
2018-09-21T14:23:42.335Z,41.80
2018-09-21T14:26:10.656Z,42.20
2018-09-21T14:28:38.807Z,41.70
2018-09-21T14:31:06.960Z,41.70
2018-09-21T14:33:35.201Z,41.90
2018-09-21T14:36:03.616Z,41.60
2018-09-21T14:38:31.904Z,42.00
2018-09-21T14:41:00.487Z,41.70
2018-09-21T14:43:28.742Z,41.80
2018-09-21T14:45:56.922Z,41.90
2018-09-21T14:48:25.177Z,41.90
2018-09-21T14:50:53.776Z,41.80
2018-09-21T14:53:22.005Z,42.30
2018-09-21T14:55:50.233Z,41.70
2018-09-21T14:58:18.498Z,41.80
2018-09-21T15:00:46.672Z,42.10
2018-09-21T15:03:14.873Z,42.20
2018-09-21T15:05:43.114Z,41.80
2018-09-21T15:08:11.369Z,40.60
2018-09-21T15:10:39.642Z,40.40
2018-09-21T15:13:07.857Z,38.60
2018-09-21T15:15:35.987Z,38.40
2018-09-21T15:18:04.189Z,37.60
2018-09-21T15:20:32.388Z,36.60
2018-09-21T15:23:00.655Z,36.60
2018-09-21T15:25:29.281Z,35.60
2018-09-21T15:27:57.548Z,34.70
2018-09-21T15:30:25.783Z,34.50
2018-09-21T15:32:54.200Z,33.50
2018-09-21T15:35:22.440Z,33.60
2018-09-21T15:37:50.658Z,33.00
2018-09-21T15:40:18.903Z,40.70
2018-09-21T15:42:47.039Z,47.20
2018-09-21T15:45:15.215Z,51.80
2018-09-21T15:47:43.417Z,53.80
2018-09-21T15:50:11.831Z,55.30
2018-09-21T15:52:40.037Z,56.10
2018-09-21T15:55:08.396Z,59.50
2018-09-21T15:57:36.657Z,60.10
2018-09-21T16:00:06.129Z,61.60
2018-09-21T16:02:34.341Z,64.00
2018-09-21T16:05:02.714Z,63.60
2018-09-21T16:07:30.952Z,64.10
2018-09-21T16:09:59.266Z,66.50
2018-09-21T16:12:27.433Z,66.60
2018-09-21T16:14:56.245Z,66.10
2018-09-21T16:17:24.464Z,63.80
2018-09-21T16:19:52.719Z,64.50
2018-09-21T16:22:20.922Z,63.60
2018-09-21T16:24:49.659Z,64.00
2018-09-21T16:27:17.954Z,63.80
2018-09-21T16:29:46.229Z,64.60
2018-09-21T16:32:14.446Z,63.80
2018-09-21T16:34:42.754Z,63.30
2018-09-21T16:37:10.981Z,62.20
2018-09-21T16:39:39.345Z,60.30
2018-09-21T16:42:07.652Z,58.80
2018-09-21T16:44:35.871Z,55.00
2018-09-21T16:47:04.203Z,54.60
2018-09-21T16:49:32.412Z,53.20
2018-09-21T16:52:00.640Z,51.90
2018-09-21T16:54:28.918Z,50.60
2018-09-21T16:56:57.157Z,51.20
2018-09-21T16:59:25.615Z,49.80
2018-09-21T17:01:53.802Z,49.20
2018-09-21T17:04:22.142Z,49.60
2018-09-21T17:06:50.599Z,49.00
2018-09-21T17:09:18.915Z,48.90
2018-09-21T17:11:47.223Z,48.70
2018-09-21T17:14:15.489Z,49.70
2018-09-21T17:16:43.766Z,49.90
2018-09-21T17:19:12.098Z,49.40
2018-09-21T17:21:40.316Z,49.70
2018-09-21T17:24:08.545Z,51.00
2018-09-21T17:26:37.190Z,50.90
2018-09-21T17:29:05.869Z,50.00
2018-09-21T17:31:34.146Z,50.20
2018-09-21T17:34:02.461Z,50.80
2018-09-21T17:36:30.671Z,50.80
2018-09-21T17:38:58.946Z,51.30
2018-09-21T17:41:27.125Z,51.60
2018-09-21T17:43:55.368Z,50.80
2018-09-21T17:46:23.599Z,50.80
2018-09-21T17:48:51.920Z,51.20
2018-09-21T17:51:20.160Z,50.90
2018-09-21T17:53:48.394Z,51.20
2018-09-21T17:56:16.677Z,51.50
2018-09-21T17:58:44.978Z,52.00
2018-09-21T18:01:13.213Z,51.70
2018-09-21T18:03:41.446Z,51.90
2018-09-21T18:06:09.750Z,53.00
2018-09-21T18:08:38.089Z,53.30
2018-09-21T18:11:06.373Z,53.70
2018-09-21T18:13:34.549Z,54.00
2018-09-21T18:16:02.836Z,53.30
2018-09-21T18:18:30.971Z,53.60
2018-09-21T18:20:59.200Z,53.50
2018-09-21T18:23:27.434Z,53.10
2018-09-21T18:25:55.757Z,53.40
2018-09-21T18:28:23.945Z,53.60
2018-09-21T18:30:52.209Z,53.80
2018-09-21T18:33:20.467Z,54.20
2018-09-21T18:35:48.725Z,53.80
2018-09-21T18:38:16.984Z,53.70
2018-09-21T18:40:45.217Z,53.50
2018-09-21T18:43:13.472Z,53.40
2018-09-21T18:45:41.649Z,52.60
2018-09-21T18:48:09.921Z,52.50
2018-09-21T18:50:38.151Z,52.50
2018-09-21T18:53:06.539Z,52.20
2018-09-21T18:55:35.054Z,52.60
2018-09-21T18:58:03.659Z,51.90
2018-09-21T19:00:31.963Z,51.50
2018-09-21T19:03:00.236Z,51.30
2018-09-21T19:05:28.787Z,51.70
2018-09-21T19:07:57.345Z,51.20
2018-09-21T19:10:25.592Z,51.40
2018-09-21T19:12:53.846Z,51.90
2018-09-21T19:15:22.447Z,52.00
2018-09-21T19:17:50.814Z,52.00
2018-09-21T19:20:19.290Z,52.00
2018-09-21T19:22:47.818Z,52.30
2018-09-21T19:25:16.396Z,52.50
2018-09-21T19:27:45.011Z,52.20
2018-09-21T19:30:13.543Z,51.60
2018-09-21T19:32:42.089Z,51.50
2018-09-21T19:35:10.511Z,51.20
2018-09-21T19:37:38.813Z,51.40
2018-09-21T19:40:07.303Z,51.40
2018-09-21T19:42:35.591Z,51.70
2018-09-21T19:45:04.128Z,51.50
2018-09-21T19:47:32.270Z,51.30
2018-09-21T19:50:00.542Z,51.20
2018-09-21T19:52:28.781Z,51.20
2018-09-21T19:54:57.054Z,50.90
2018-09-21T19:57:25.345Z,50.60
2018-09-21T19:59:53.622Z,50.60
2018-09-21T20:02:21.868Z,50.70
2018-09-21T20:04:50.240Z,50.60
2018-09-21T20:07:18.561Z,50.60
2018-09-21T20:09:46.758Z,50.50
2018-09-21T20:12:15.042Z,50.50
2018-09-21T20:14:43.284Z,51.10
2018-09-21T20:17:11.480Z,50.40
2018-09-21T20:19:39.654Z,50.40
2018-09-21T20:22:09.432Z,50.40
2018-09-21T20:24:37.617Z,50.40
2018-09-21T20:27:05.919Z,50.40
2018-09-21T20:29:34.176Z,50.40
2018-09-21T20:32:08.179Z,50.40
2018-09-21T20:34:36.349Z,50.50
2018-09-21T20:37:04.581Z,50.50
2018-09-21T20:39:32.859Z,49.50
2018-09-21T20:42:01.152Z,50.40
2018-09-21T20:44:29.480Z,49.80
2018-09-21T20:46:57.759Z,50.30
2018-09-21T20:49:26.025Z,50.40
2018-09-21T20:51:54.325Z,50.10
2018-09-21T20:54:22.494Z,50.50
2018-09-21T20:56:50.764Z,50.20
2018-09-21T20:59:19.004Z,49.70
2018-09-21T21:01:48.122Z,49.40
2018-09-21T21:04:16.441Z,49.70
2018-09-21T21:06:44.717Z,49.30
2018-09-21T21:09:12.945Z,49.20
2018-09-21T21:11:41.297Z,49.30
2018-09-21T21:14:09.517Z,49.10
2018-09-21T21:16:37.633Z,49.10
2018-09-21T21:19:07.347Z,49.20
2018-09-21T21:21:35.526Z,49.40
2018-09-21T21:24:03.769Z,48.70
2018-09-21T21:26:32.020Z,49.00
2018-09-21T21:29:00.247Z,48.90
2018-09-21T21:31:28.512Z,49.20
2018-09-21T21:33:56.805Z,48.70
2018-09-21T21:36:25.187Z,48.80
2018-09-21T21:38:53.408Z,48.70
2018-09-21T21:41:21.623Z,48.60
2018-09-21T21:43:49.799Z,48.60
2018-09-21T21:46:17.933Z,48.50
2018-09-21T21:48:46.171Z,49.00
2018-09-21T21:51:14.351Z,49.00
2018-09-21T21:53:42.523Z,49.20
2018-09-21T21:56:10.746Z,49.30
2018-09-21T21:58:39.019Z,49.20
2018-09-21T22:01:12.905Z,49.30
2018-09-21T22:03:41.139Z,49.20
2018-09-21T22:06:10.075Z,49.90
2018-09-21T22:08:38.199Z,49.90
2018-09-21T22:11:11.779Z,50.00
2018-09-21T22:13:45.667Z,50.00
2018-09-21T22:16:13.942Z,50.30
2018-09-21T22:18:42.104Z,50.50
2018-09-21T22:21:10.307Z,50.80
2018-09-21T22:23:38.463Z,50.60
2018-09-21T22:26:06.633Z,50.60
2018-09-21T22:28:34.907Z,50.60
2018-09-21T22:31:03.032Z,50.50
2018-09-21T22:33:31.175Z,50.40
2018-09-21T22:35:59.396Z,50.40
2018-09-21T22:38:27.648Z,50.60
2018-09-21T22:40:55.836Z,50.40
2018-09-21T22:43:24.066Z,50.40
2018-09-21T22:45:52.272Z,50.80
2018-09-21T22:48:20.421Z,50.70
2018-09-21T22:50:48.564Z,50.90
2018-09-21T22:53:16.738Z,51.10
2018-09-21T22:55:44.884Z,51.10
2018-09-21T22:58:13.193Z,51.10
2018-09-21T23:00:41.482Z,51.30
2018-09-21T23:03:09.635Z,51.10
2018-09-21T23:05:37.840Z,51.30
2018-09-21T23:08:06.136Z,51.70
2018-09-21T23:10:34.338Z,51.80
2018-09-21T23:13:02.544Z,51.80
2018-09-21T23:15:30.759Z,51.60
2018-09-21T23:17:58.904Z,51.50
2018-09-21T23:20:27.032Z,51.70
2018-09-21T23:22:55.192Z,52.00
2018-09-21T23:25:23.365Z,52.10
2018-09-21T23:27:51.547Z,52.60
2018-09-21T23:30:19.752Z,52.20
2018-09-21T23:32:47.969Z,52.40
2018-09-21T23:35:16.194Z,52.20
2018-09-21T23:37:44.441Z,52.30
2018-09-21T23:40:12.590Z,52.80
2018-09-21T23:42:40.806Z,52.60
2018-09-21T23:45:09.000Z,52.70
2018-09-21T23:47:37.251Z,52.80
2018-09-21T23:50:05.471Z,53.00
2018-09-21T23:52:33.668Z,53.30
2018-09-21T23:55:02.799Z,53.20
2018-09-21T23:57:30.962Z,53.50
2018-09-21T23:59:59.096Z,53.70
